Time;durP1;ratioP1;P1;durP2;ratioP2;P2;SDS_P1;SDS_P2;PMS_P1;PMS_P2;Temp;Humidity;BMP_temperature;BMP_pressure;BME280_temperature;BME280_humidity;BME280_pressure;Samples;Min_cycle;Max_cycle;Signal;HPM_P1;HPM_P2
2021/01/24 00:02:04;;;;;;;10.17;9.17;;;;;;;;;;5048404;28;20207;-67
2021/01/24 00:04:29;;;;;;;11.27;10.00;;;;;;;;;;5046541;28;20587;-67
2021/01/24 00:06:54;;;;;;;11.68;10.05;;;;;;;;;;5043102;28;21007;-67
2021/01/24 00:09:19;;;;;;;17.08;12.00;;;;;;;;;;5051939;28;20193;-67
2021/01/24 00:11:45;;;;;;;11.63;10.27;;;;;;;;;;5050512;28;20180;-66
2021/01/24 00:14:10;;;;;;;14.13;11.20;;;;;;;;;;5051396;28;20534;-66
2021/01/24 00:16:35;;;;;;;12.32;10.23;;;;;;;;;;5049930;28;20186;-65
2021/01/24 00:19:00;;;;;;;14.15;11.20;;;;;;;;;;5050790;28;20194;-65
2021/01/24 00:21:25;;;;;;;11.87;10.57;;;;;;;;;;5050596;28;20602;-66
2021/01/24 00:23:50;;;;;;;13.70;11.55;;;;;;;;;;5047058;28;20178;-66
2021/01/24 00:26:15;;;;;;;14.13;11.98;;;;;;;;;;5041312;28;20231;-66
2021/01/24 00:28:41;;;;;;;15.75;11.88;;;;;;;;;;5042048;28;20287;-67
2021/01/24 00:31:06;;;;;;;15.20;12.13;;;;;;;;;;5046914;28;20175;-67
2021/01/24 00:33:31;;;;;;;11.90;9.88;;;;;;;;;;5046986;28;20384;-67
2021/01/24 00:35:56;;;;;;;12.70;10.40;;;;;;;;;;5044576;28;20184;-65
2021/01/24 00:38:21;;;;;;;14.53;10.93;;;;;;;;;;5044407;28;20184;-66
2021/01/24 00:40:47;;;;;;;14.85;11.68;;;;;;;;;;5047192;28;20608;-66
2021/01/24 00:43:12;;;;;;;12.33;11.03;;;;;;;;;;5045458;28;20174;-66
2021/01/24 00:45:37;;;;;;;14.67;10.63;;;;;;;;;;5043291;28;20911;-65
2021/01/24 00:48:02;;;;;;;10.73;9.03;;;;;;;;;;5046811;28;20182;-66
2021/01/24 00:50:28;;;;;;;11.37;9.83;;;;;;;;;;5046277;28;20175;-66
2021/01/24 00:52:53;;;;;;;10.17;9.17;;;;;;;;;;5046881;28;20526;-66
2021/01/24 00:55:18;;;;;;;10.90;9.73;;;;;;;;;;5045322;28;20186;-66
2021/01/24 00:57:43;;;;;;;11.43;9.90;;;;;;;;;;5044525;28;20730;-66
2021/01/24 01:00:09;;;;;;;10.97;9.87;;;;;;;;;;5045178;28;20182;-66
2021/01/24 01:02:34;;;;;;;10.70;8.70;;;;;;;;;;5045367;28;20564;-65
2021/01/24 01:04:59;;;;;;;8.02;7.22;;;;;;;;;;5046458;28;20185;-66
2021/01/24 01:07:24;;;;;;;13.30;10.23;;;;;;;;;;5041670;28;20182;-66
2021/01/24 01:09:50;;;;;;;10.00;9.00;;;;;;;;;;5046332;28;20182;-66
2021/01/24 01:12:15;;;;;;;8.98;8.10;;;;;;;;;;5048226;28;20188;-66
2021/01/24 01:14:40;;;;;;;10.67;9.23;;;;;;;;;;5042534;28;20186;-66
2021/01/24 01:17:05;;;;;;;8.15;7.35;;;;;;;;;;5047443;28;20211;-66
2021/01/24 01:19:30;;;;;;;11.87;10.23;;;;;;;;;;5049393;28;20551;-66
2021/01/24 01:21:55;;;;;;;12.07;8.93;;;;;;;;;;5045040;28;20198;-66
2021/01/24 01:24:21;;;;;;;9.32;8.48;;;;;;;;;;5042955;28;20202;-66
2021/01/24 01:26:46;;;;;;;12.23;9.73;;;;;;;;;;5045014;28;20291;-67
2021/01/24 01:29:11;;;;;;;8.73;7.80;;;;;;;;;;5041489;28;20176;-66
2021/01/24 01:31:36;;;;;;;9.35;8.30;;;;;;;;;;5047088;28;20265;-66
2021/01/24 01:34:01;;;;;;;9.37;7.93;;;;;;;;;;5045350;28;20178;-67
2021/01/24 01:36:27;;;;;;;8.63;7.80;;;;;;;;;;5045364;28;20183;-66
2021/01/24 01:38:52;;;;;;;7.90;7.05;;;;;;;;;;5042412;28;20190;-66
2021/01/24 01:41:17;;;;;;;8.77;7.85;;;;;;;;;;5044661;28;20251;-65
2021/01/24 01:43:42;;;;;;;9.77;8.30;;;;;;;;;;5045388;28;20180;-68
2021/01/24 01:46:08;;;;;;;8.68;7.78;;;;;;;;;;5040332;28;20690;-68
2021/01/24 01:48:33;;;;;;;8.00;7.20;;;;;;;;;;5044712;28;20174;-67
2021/01/24 01:50:58;;;;;;;8.95;7.93;;;;;;;;;;5042396;28;21669;-67
2021/01/24 01:53:24;;;;;;;9.53;8.50;;;;;;;;;;5039440;28;20418;-68
2021/01/24 01:55:49;;;;;;;9.23;7.83;;;;;;;;;;5043245;28;20712;-68
2021/01/24 01:58:14;;;;;;;8.60;7.78;;;;;;;;;;5044385;28;20652;-68
2021/01/24 02:00:39;;;;;;;9.18;8.00;;;;;;;;;;5045660;28;20532;-67
2021/01/24 02:03:04;;;;;;;9.37;7.73;;;;;;;;;;5045085;28;20449;-67
2021/01/24 02:05:48;;;;;;;11.00;8.75;;;;;;;;;;5043914;28;20187;-67
2021/01/24 02:08:16;;;;;;;10.07;8.97;;;;;;;;;;5038965;28;20550;-67
2021/01/24 02:11:07;;;;;;;11.33;9.80;;;;;;;;;;5044688;28;22236;-68
2021/01/24 02:13:52;;;;;;;9.90;8.90;;;;;;;;;;5042524;28;20617;-68
2021/01/24 02:16:19;;;;;;;10.87;9.67;;;;;;;;;;5038905;28;20608;-67
2021/01/24 02:18:45;;;;;;;12.77;10.87;;;;;;;;;;5043618;28;20817;-67
2021/01/24 02:23:47;;;;;;;10.97;9.83;;;;;;;;;;5797588;22;20780;-65
2021/01/24 02:26:12;;;;;;;10.20;9.20;;;;;;;;;;5055152;28;21273;-68
2021/01/24 02:28:48;;;;;;;11.53;10.37;;;;;;;;;;5065672;28;20619;-68
2021/01/24 02:31:14;;;;;;;12.87;10.97;;;;;;;;;;5065543;28;20231;-68
2021/01/24 02:33:39;;;;;;;10.83;9.73;;;;;;;;;;5063950;28;20612;-68
2021/01/24 02:36:06;;;;;;;11.57;10.13;;;;;;;;;;5061292;28;20699;-68
2021/01/24 02:38:32;;;;;;;11.43;9.30;;;;;;;;;;5065791;28;20284;-68
2021/01/24 02:40:57;;;;;;;10.40;9.20;;;;;;;;;;5067540;28;21036;-68
2021/01/24 02:43:23;;;;;;;11.70;10.50;;;;;;;;;;5059200;28;20197;-68
2021/01/24 02:45:49;;;;;;;10.57;9.33;;;;;;;;;;5055972;28;20588;-68
2021/01/24 02:48:16;;;;;;;12.23;10.93;;;;;;;;;;5052488;28;20600;-68
2021/01/24 02:50:41;;;;;;;11.13;9.77;;;;;;;;;;5058578;28;20618;-68
2021/01/24 02:53:07;;;;;;;13.10;10.40;;;;;;;;;;5053779;28;20610;-69
2021/01/24 02:55:32;;;;;;;12.30;10.33;;;;;;;;;;5055207;28;20662;-69
2021/01/24 02:57:58;;;;;;;16.10;12.10;;;;;;;;;;5052357;28;20270;-69
2021/01/24 03:00:24;;;;;;;11.53;9.80;;;;;;;;;;5059256;28;20631;-69
2021/01/24 03:02:49;;;;;;;13.27;11.33;;;;;;;;;;5058941;28;20213;-68
2021/01/24 03:05:14;;;;;;;11.87;10.40;;;;;;;;;;5055871;28;20188;-69
2021/01/24 03:07:40;;;;;;;11.18;10.02;;;;;;;;;;5056913;28;20179;-69
2021/01/24 03:10:05;;;;;;;11.73;10.57;;;;;;;;;;5063412;28;20185;-69
2021/01/24 03:12:33;;;;;;;12.10;10.80;;;;;;;;;;5057296;28;20796;-66
2021/01/24 03:14:59;;;;;;;11.27;10.17;;;;;;;;;;5064657;28;20867;-66
2021/01/24 03:17:24;;;;;;;11.40;9.87;;;;;;;;;;5062410;28;20780;-66
2021/01/24 03:19:50;;;;;;;11.87;10.60;;;;;;;;;;5060047;28;20180;-66
2021/01/24 03:22:15;;;;;;;11.70;10.00;;;;;;;;;;5061620;28;20209;-66
2021/01/24 03:24:42;;;;;;;10.70;9.60;;;;;;;;;;5062447;28;20581;-67
2021/01/24 03:27:08;;;;;;;10.57;9.57;;;;;;;;;;5062127;28;20177;-66
2021/01/24 03:29:34;;;;;;;12.80;11.10;;;;;;;;;;5064501;28;20938;-67
2021/01/24 03:31:59;;;;;;;12.27;10.83;;;;;;;;;;5060403;28;20185;-67
2021/01/24 03:34:25;;;;;;;12.80;11.55;;;;;;;;;;5063422;28;20967;-67
2021/01/24 03:36:51;;;;;;;12.80;10.37;;;;;;;;;;5060143;28;20668;-66
2021/01/24 03:39:16;;;;;;;12.77;11.43;;;;;;;;;;5063983;28;20676;-66
2021/01/24 03:41:42;;;;;;;15.10;11.40;;;;;;;;;;5062160;28;20656;-66
2021/01/24 03:44:07;;;;;;;11.97;10.60;;;;;;;;;;5051983;28;20622;-66
2021/01/24 03:46:33;;;;;;;13.47;11.80;;;;;;;;;;5064647;28;20186;-66
2021/01/24 03:48:58;;;;;;;11.97;10.77;;;;;;;;;;5063976;28;20177;-66
2021/01/24 03:51:23;;;;;;;12.77;11.17;;;;;;;;;;5067769;28;21476;-66
2021/01/24 03:53:48;;;;;;;12.73;11.13;;;;;;;;;;5060536;28;20180;-67
2021/01/24 03:56:13;;;;;;;14.50;11.60;;;;;;;;;;5059366;28;20596;-67
2021/01/24 03:58:40;;;;;;;13.13;10.30;;;;;;;;;;5056404;28;20194;-67
2021/01/24 04:01:05;;;;;;;12.57;11.27;;;;;;;;;;5059021;28;20188;-67
2021/01/24 04:03:30;;;;;;;12.07;10.80;;;;;;;;;;5064579;28;20615;-67
2021/01/24 04:05:56;;;;;;;15.27;12.50;;;;;;;;;;5066404;28;20247;-67
2021/01/24 04:08:21;;;;;;;10.65;9.63;;;;;;;;;;5064269;28;20679;-67
2021/01/24 04:10:46;;;;;;;11.95;10.55;;;;;;;;;;5064613;28;20227;-68
2021/01/24 04:13:11;;;;;;;15.90;12.80;;;;;;;;;;5066673;28;20263;-65
2021/01/24 04:15:36;;;;;;;11.07;9.80;;;;;;;;;;5067407;28;20190;-66
2021/01/24 04:18:01;;;;;;;12.07;10.87;;;;;;;;;;5059231;28;20183;-66
2021/01/24 04:20:27;;;;;;;14.33;10.67;;;;;;;;;;5062428;28;20170;-66
2021/01/24 04:22:52;;;;;;;11.40;10.17;;;;;;;;;;5065949;28;20234;-66
2021/01/24 04:25:18;;;;;;;11.23;10.03;;;;;;;;;;5068844;28;20225;-65
2021/01/24 04:27:43;;;;;;;12.73;10.80;;;;;;;;;;5064340;28;20205;-66
2021/01/24 04:30:08;;;;;;;12.37;10.60;;;;;;;;;;5064235;28;21059;-66
2021/01/24 04:32:34;;;;;;;12.17;10.63;;;;;;;;;;5068395;28;20565;-66
2021/01/24 04:34:59;;;;;;;11.60;10.20;;;;;;;;;;5062019;28;20550;-67
2021/01/24 04:37:24;;;;;;;11.70;10.60;;;;;;;;;;5067188;28;20180;-66
2021/01/24 04:39:49;;;;;;;14.30;11.30;;;;;;;;;;5067108;28;20175;-66
2021/01/24 04:42:15;;;;;;;12.00;10.80;;;;;;;;;;5060698;28;20223;-66
2021/01/24 04:44:41;;;;;;;12.57;11.03;;;;;;;;;;5070495;28;20692;-66
2021/01/24 04:47:07;;;;;;;13.20;11.40;;;;;;;;;;5064702;28;20765;-66
2021/01/24 04:49:32;;;;;;;11.97;10.77;;;;;;;;;;5060883;28;20612;-67
2021/01/24 04:51:58;;;;;;;11.07;9.93;;;;;;;;;;5065257;28;20208;-66
2021/01/24 04:54:24;;;;;;;11.53;10.33;;;;;;;;;;5064271;28;20192;-66
2021/01/24 04:56:49;;;;;;;12.30;11.00;;;;;;;;;;5061987;28;20614;-67
2021/01/24 04:59:15;;;;;;;12.83;10.17;;;;;;;;;;5060042;28;20657;-67
2021/01/24 05:01:42;;;;;;;11.60;10.40;;;;;;;;;;5061193;28;21169;-67
2021/01/24 05:04:07;;;;;;;14.07;11.90;;;;;;;;;;5063946;28;20167;-67
2021/01/24 05:06:32;;;;;;;14.90;11.50;;;;;;;;;;5064502;28;20645;-66
2021/01/24 05:08:58;;;;;;;12.70;11.30;;;;;;;;;;5062449;28;20207;-66
2021/01/24 05:11:24;;;;;;;13.27;11.47;;;;;;;;;;5068514;28;20676;-67
2021/01/24 05:13:49;;;;;;;12.45;10.82;;;;;;;;;;5066990;28;21169;-66
2021/01/24 05:16:14;;;;;;;13.52;11.30;;;;;;;;;;5068784;28;20710;-67
2021/01/24 05:18:39;;;;;;;12.48;11.23;;;;;;;;;;5065981;28;20227;-67
2021/01/24 05:21:07;;;;;;;13.53;11.10;;;;;;;;;;5066680;28;20176;-67
2021/01/24 05:23:35;;;;;;;12.90;10.80;;;;;;;;;;5064857;28;20762;-66
2021/01/24 05:26:05;;;;;;;14.30;11.60;;;;;;;;;;5063089;28;21251;-68
2021/01/24 05:28:31;;;;;;;13.30;11.00;;;;;;;;;;5061728;28;20613;-67
2021/01/24 05:31:03;;;;;;;13.97;12.27;;;;;;;;;;5062776;28;20973;-67
2021/01/24 05:33:28;;;;;;;12.97;10.43;;;;;;;;;;5066299;28;20191;-67
2021/01/24 05:35:53;;;;;;;16.13;12.10;;;;;;;;;;5068622;28;20602;-66
2021/01/24 05:38:31;;;;;;;16.73;12.33;;;;;;;;;;5060233;28;20177;-66
2021/01/24 05:41:01;;;;;;;14.57;12.07;;;;;;;;;;5066758;28;20190;-66
2021/01/24 05:43:27;;;;;;;13.60;11.70;;;;;;;;;;5063116;28;21406;-66
2021/01/24 05:45:52;;;;;;;14.10;12.57;;;;;;;;;;5065614;28;20650;-66
2021/01/24 05:48:18;;;;;;;16.83;12.20;;;;;;;;;;5056105;28;21039;-65
2021/01/24 05:50:44;;;;;;;15.10;12.30;;;;;;;;;;5065372;28;20693;-66
2021/01/24 05:53:11;;;;;;;15.40;12.30;;;;;;;;;;5063014;28;20261;-65
2021/01/24 05:55:36;;;;;;;15.00;12.63;;;;;;;;;;5063078;28;20604;-66
2021/01/24 05:58:19;;;;;;;16.83;12.50;;;;;;;;;;5062274;28;20663;-66
2021/01/24 06:00:45;;;;;;;14.20;12.07;;;;;;;;;;5060508;28;20180;-66
2021/01/24 06:03:11;;;;;;;15.40;12.97;;;;;;;;;;5060851;28;20935;-66
2021/01/24 06:05:36;;;;;;;14.83;13.33;;;;;;;;;;5064589;28;20605;-66
2021/01/24 06:08:01;;;;;;;16.70;12.07;;;;;;;;;;5060161;28;20673;-66
2021/01/24 06:10:27;;;;;;;15.60;13.70;;;;;;;;;;5059769;28;20168;-66
2021/01/24 06:12:52;;;;;;;15.23;12.67;;;;;;;;;;5062631;28;20192;-66
2021/01/24 06:15:18;;;;;;;15.40;13.43;;;;;;;;;;5063099;28;20283;-66
2021/01/24 06:17:44;;;;;;;13.37;11.97;;;;;;;;;;5060916;28;20213;-65
2021/01/24 06:20:11;;;;;;;15.13;12.23;;;;;;;;;;5063371;28;20948;-66
2021/01/24 06:22:39;;;;;;;14.87;13.10;;;;;;;;;;5062863;28;20654;-66
2021/01/24 06:25:08;;;;;;;15.23;12.60;;;;;;;;;;5062112;28;20762;-66
2021/01/24 06:27:37;;;;;;;18.20;14.00;;;;;;;;;;5055316;28;21003;-66
2021/01/24 06:30:06;;;;;;;17.10;14.47;;;;;;;;;;5061021;28;20639;-66
2021/01/24 06:32:31;;;;;;;14.73;13.13;;;;;;;;;;5061181;28;20605;-66
2021/01/24 06:35:13;;;;;;;15.87;13.20;;;;;;;;;;5063156;28;20609;-67
2021/01/24 06:37:45;;;;;;;18.90;14.63;;;;;;;;;;5058878;28;20184;-65
2021/01/24 06:40:19;;;;;;;16.90;14.97;;;;;;;;;;5063660;28;20602;-67
2021/01/24 06:42:44;;;;;;;19.00;15.37;;;;;;;;;;5064239;28;20707;-65
2021/01/24 06:45:22;;;;;;;20.90;14.93;;;;;;;;;;5061727;28;21401;-66
2021/01/24 06:47:47;;;;;;;18.77;14.73;;;;;;;;;;5054966;28;20204;-66
2021/01/24 06:50:31;;;;;;;20.67;16.33;;;;;;;;;;5057893;28;20604;-66
2021/01/24 06:53:03;;;;;;;18.17;15.23;;;;;;;;;;5061625;28;20388;-67
2021/01/24 06:55:28;;;;;;;23.30;16.60;;;;;;;;;;5063682;28;20635;-65
2021/01/24 06:57:53;;;;;;;22.60;16.27;;;;;;;;;;5065837;28;20622;-66
2021/01/24 07:00:20;;;;;;;19.27;14.43;;;;;;;;;;5053168;28;20228;-66
2021/01/24 07:02:45;;;;;;;29.33;19.93;;;;;;;;;;5063666;28;20237;-66
2021/01/24 07:05:10;;;;;;;22.10;16.93;;;;;;;;;;5066025;28;20593;-66
2021/01/24 07:07:37;;;;;;;19.73;15.20;;;;;;;;;;5063978;28;20512;-65
2021/01/24 07:10:03;;;;;;;22.20;16.30;;;;;;;;;;5059560;28;20197;-65
2021/01/24 07:12:47;;;;;;;19.83;15.17;;;;;;;;;;5064970;28;20613;-67
2021/01/24 07:15:21;;;;;;;22.30;16.30;;;;;;;;;;5060948;28;20657;-66
2021/01/24 07:17:54;;;;;;;22.27;17.73;;;;;;;;;;5061645;28;20598;-66
2021/01/24 07:20:19;;;;;;;19.50;15.53;;;;;;;;;;5063585;28;20595;-67
2021/01/24 07:22:45;;;;;;;20.10;14.73;;;;;;;;;;5055795;28;20660;-66
2021/01/24 07:25:11;;;;;;;22.47;16.33;;;;;;;;;;5065844;28;20308;-66
2021/01/24 07:27:37;;;;;;;22.40;16.50;;;;;;;;;;5061363;28;20753;-67
2021/01/24 07:30:05;;;;;;;26.10;16.87;;;;;;;;;;5062872;28;20177;-66
2021/01/24 07:32:30;;;;;;;23.23;16.97;;;;;;;;;;5065359;28;20223;-67
2021/01/24 07:34:55;;;;;;;21.52;16.05;;;;;;;;;;5063604;28;20619;-67
2021/01/24 07:37:21;;;;;;;22.30;16.57;;;;;;;;;;5066263;28;20196;-66
2021/01/24 07:39:47;;;;;;;20.60;15.77;;;;;;;;;;5060799;28;20190;-66
2021/01/24 07:42:13;;;;;;;21.23;15.10;;;;;;;;;;5065224;28;20201;-67
2021/01/24 07:44:39;;;;;;;22.27;14.80;;;;;;;;;;5069862;28;20594;-66
2021/01/24 07:47:04;;;;;;;21.97;16.13;;;;;;;;;;5067205;28;21082;-67
2021/01/24 07:49:30;;;;;;;23.67;15.60;;;;;;;;;;5054485;28;20948;-66
2021/01/24 07:51:55;;;;;;;16.83;14.57;;;;;;;;;;5071008;28;20210;-67
2021/01/24 07:54:20;;;;;;;21.53;15.40;;;;;;;;;;5067024;28;20536;-66
2021/01/24 07:56:46;;;;;;;22.73;16.27;;;;;;;;;;5070360;28;20190;-67
2021/01/24 07:59:11;;;;;;;20.13;15.27;;;;;;;;;;5063134;28;20227;-67
2021/01/24 08:01:36;;;;;;;18.40;14.30;;;;;;;;;;5070222;28;20246;-67
2021/01/24 08:04:05;;;;;;;18.20;14.80;;;;;;;;;;5066385;28;20177;-67
2021/01/24 08:06:31;;;;;;;23.20;16.70;;;;;;;;;;5070689;28;20176;-67
2021/01/24 08:08:56;;;;;;;20.85;18.55;;;;;;;;;;5059001;28;24419;-68
2021/01/24 08:11:21;;;;;;;20.52;18.42;;;;;;;;;;5062892;28;24434;-68
2021/01/24 08:13:47;;;;;;;20.50;18.30;;;;;;;;;;5060376;28;25036;-67
2021/01/24 08:16:19;;;;;;;23.30;17.23;;;;;;;;;;5065110;28;20507;-67
2021/01/24 08:18:45;;;;;;;19.57;15.60;;;;;;;;;;5062049;28;20172;-64
2021/01/24 08:21:11;;;;;;;23.13;16.47;;;;;;;;;;5069192;28;21013;-67
2021/01/24 08:23:37;;;;;;;19.83;16.37;;;;;;;;;;5064137;28;20754;-64
2021/01/24 08:26:06;;;;;;;26.63;18.50;;;;;;;;;;5069387;28;20177;-64
2021/01/24 08:28:31;;;;;;;21.90;17.20;;;;;;;;;;5065640;28;20187;-67
2021/01/24 08:31:00;;;;;;;24.50;17.40;;;;;;;;;;5064282;28;20588;-64
2021/01/24 08:33:25;;;;;;;23.23;16.93;;;;;;;;;;5066894;28;20778;-64
2021/01/24 08:35:51;;;;;;;23.33;17.47;;;;;;;;;;5067268;28;20623;-65
2021/01/24 08:38:16;;;;;;;27.07;17.77;;;;;;;;;;5065928;28;20312;-65
2021/01/24 08:40:41;;;;;;;21.45;17.02;;;;;;;;;;5064038;28;20193;-65
2021/01/24 08:43:07;;;;;;;18.87;15.77;;;;;;;;;;5067840;28;20421;-65
2021/01/24 08:45:33;;;;;;;17.30;15.30;;;;;;;;;;5060971;28;20256;-64
2021/01/24 08:47:59;;;;;;;19.63;15.83;;;;;;;;;;5063277;28;21292;-65
2021/01/24 08:50:34;;;;;;;20.40;15.97;;;;;;;;;;5063598;28;20174;-65
2021/01/24 08:53:01;;;;;;;21.70;16.07;;;;;;;;;;5060408;28;20600;-64
2021/01/24 08:55:26;;;;;;;19.93;15.37;;;;;;;;;;5060321;28;20600;-65
2021/01/24 08:57:52;;;;;;;20.50;15.33;;;;;;;;;;5068566;28;20587;-65
2021/01/24 09:00:17;;;;;;;19.90;17.40;;;;;;;;;;5066921;28;20182;-65
2021/01/24 09:02:43;;;;;;;23.30;17.20;;;;;;;;;;5065150;28;20215;-65
2021/01/24 09:05:09;;;;;;;21.97;16.80;;;;;;;;;;5067125;28;20177;-64
2021/01/24 09:07:35;;;;;;;28.30;17.70;;;;;;;;;;5069498;28;20539;-64
2021/01/24 09:10:13;;;;;;;19.00;15.47;;;;;;;;;;5060026;28;20596;-65
2021/01/24 09:12:38;;;;;;;21.93;17.53;;;;;;;;;;5067174;28;20988;-65
2021/01/24 09:15:04;;;;;;;20.43;16.57;;;;;;;;;;5069990;28;20599;-65
2021/01/24 09:17:29;;;;;;;22.47;17.20;;;;;;;;;;5069738;28;20292;-66
2021/01/24 09:19:54;;;;;;;21.40;17.05;;;;;;;;;;5066831;28;20486;-65
2021/01/24 09:22:19;;;;;;;21.00;18.15;;;;;;;;;;5070016;28;20304;-65
2021/01/24 09:24:44;;;;;;;17.70;14.98;;;;;;;;;;5060225;28;20237;-65
2021/01/24 09:27:11;;;;;;;20.10;16.43;;;;;;;;;;5066666;28;20744;-64
2021/01/24 09:29:37;;;;;;;19.40;16.70;;;;;;;;;;5067057;28;20168;-64
2021/01/24 09:32:03;;;;;;;20.77;15.93;;;;;;;;;;5068172;28;20645;-64
2021/01/24 09:34:28;;;;;;;19.90;17.20;;;;;;;;;;5068629;28;20616;-65
2021/01/24 09:36:53;;;;;;;16.97;15.03;;;;;;;;;;5069068;28;20917;-64
2021/01/24 09:39:18;;;;;;;20.73;15.90;;;;;;;;;;5065546;28;20251;-65
2021/01/24 09:41:44;;;;;;;19.73;16.33;;;;;;;;;;5059138;28;20233;-65
2021/01/24 09:44:09;;;;;;;19.17;15.40;;;;;;;;;;5069051;28;20318;-65
2021/01/24 09:46:34;;;;;;;19.83;16.00;;;;;;;;;;5065727;28;20186;-65
2021/01/24 09:48:59;;;;;;;21.23;16.00;;;;;;;;;;5064014;28;20732;-65
2021/01/24 09:51:24;;;;;;;18.85;15.25;;;;;;;;;;5067346;28;20176;-65
2021/01/24 09:53:56;;;;;;;18.77;16.17;;;;;;;;;;5068767;28;20182;-65
2021/01/24 09:56:21;;;;;;;19.80;15.83;;;;;;;;;;5057951;28;20165;-65
2021/01/24 09:58:46;;;;;;;22.13;16.87;;;;;;;;;;5066986;28;20692;-65
2021/01/24 10:01:12;;;;;;;19.93;17.60;;;;;;;;;;5068115;28;20306;-65
2021/01/24 10:03:37;;;;;;;20.10;17.57;;;;;;;;;;5068907;28;20171;-65
2021/01/24 10:06:03;;;;;;;20.80;16.53;;;;;;;;;;5069088;28;20565;-66
2021/01/24 10:08:28;;;;;;;19.97;17.80;;;;;;;;;;5057565;28;20614;-66
2021/01/24 10:10:53;;;;;;;22.37;17.83;;;;;;;;;;5051259;28;20212;-67
2021/01/24 10:13:19;;;;;;;21.23;17.80;;;;;;;;;;5069133;28;20196;-67
2021/01/24 10:15:48;;;;;;;21.00;17.35;;;;;;;;;;5059314;28;20180;-66
2021/01/24 10:18:14;;;;;;;21.23;17.80;;;;;;;;;;5060851;28;20202;-66
2021/01/24 10:20:40;;;;;;;20.73;17.47;;;;;;;;;;5065761;28;20670;-67
2021/01/24 10:23:05;;;;;;;19.65;17.02;;;;;;;;;;5068498;28;20649;-66
2021/01/24 10:25:30;;;;;;;20.25;16.45;;;;;;;;;;5063147;28;20225;-66
2021/01/24 10:27:55;;;;;;;21.77;18.80;;;;;;;;;;5068228;28;20172;-66
2021/01/24 10:30:20;;;;;;;23.58;18.83;;;;;;;;;;5057684;28;20577;-67
2021/01/24 10:32:45;;;;;;;23.50;18.50;;;;;;;;;;5055639;28;20212;-67
2021/01/24 10:35:11;;;;;;;21.70;17.98;;;;;;;;;;5048753;28;20236;-66
2021/01/24 10:37:36;;;;;;;20.63;17.67;;;;;;;;;;5055221;28;20173;-67
2021/01/24 10:40:02;;;;;;;20.80;18.33;;;;;;;;;;5059128;28;20186;-67
2021/01/24 10:42:27;;;;;;;22.80;18.80;;;;;;;;;;5064291;28;20732;-67
2021/01/24 10:44:52;;;;;;;21.48;18.27;;;;;;;;;;5066401;28;20937;-67
2021/01/24 10:47:18;;;;;;;24.37;19.17;;;;;;;;;;5053894;28;20186;-67
2021/01/24 10:49:43;;;;;;;20.97;17.80;;;;;;;;;;5066801;28;20170;-67
2021/01/24 10:52:08;;;;;;;22.43;18.00;;;;;;;;;;5067798;28;20889;-68
2021/01/24 10:54:34;;;;;;;23.45;18.52;;;;;;;;;;5063946;28;20712;-67
2021/01/24 10:56:59;;;;;;;22.50;18.70;;;;;;;;;;5060271;28;20189;-67
2021/01/24 10:59:24;;;;;;;20.90;17.05;;;;;;;;;;5066869;28;20184;-67
2021/01/24 11:01:49;;;;;;;21.17;17.52;;;;;;;;;;5052291;28;20296;-67
2021/01/24 11:04:14;;;;;;;19.00;17.00;;;;;;;;;;5068373;28;20629;-67
2021/01/24 11:06:40;;;;;;;20.30;16.53;;;;;;;;;;5064972;28;20179;-67
2021/01/24 11:09:05;;;;;;;21.00;15.63;;;;;;;;;;5065582;28;20193;-67
2021/01/24 11:11:30;;;;;;;25.48;19.10;;;;;;;;;;5058668;28;20193;-67
2021/01/24 11:13:55;;;;;;;21.58;17.30;;;;;;;;;;5064358;28;20248;-67
2021/01/24 11:16:20;;;;;;;19.35;16.45;;;;;;;;;;5065927;28;20191;-67
2021/01/24 11:18:46;;;;;;;18.97;16.80;;;;;;;;;;5070900;28;20571;-68
2021/01/24 11:21:11;;;;;;;18.65;15.73;;;;;;;;;;5067975;28;20193;-66
2021/01/24 11:23:36;;;;;;;19.70;16.05;;;;;;;;;;5069333;28;20216;-67
2021/01/24 11:26:01;;;;;;;19.10;16.15;;;;;;;;;;5061087;28;20174;-67
2021/01/24 11:28:26;;;;;;;21.10;16.67;;;;;;;;;;5072543;28;20204;-66
2021/01/24 11:30:51;;;;;;;23.10;17.33;;;;;;;;;;5070286;28;20159;-65
2021/01/24 11:33:17;;;;;;;21.23;15.67;;;;;;;;;;5070181;28;20190;-65
2021/01/24 11:35:42;;;;;;;23.13;17.98;;;;;;;;;;5067943;28;20705;-66
2021/01/24 11:38:07;;;;;;;18.37;15.07;;;;;;;;;;5069798;28;20185;-67
2021/01/24 11:40:32;;;;;;;25.45;17.33;;;;;;;;;;5057440;28;20193;-65
2021/01/24 11:42:57;;;;;;;25.33;16.77;;;;;;;;;;5071233;28;20210;-66
2021/01/24 11:45:22;;;;;;;28.85;18.95;;;;;;;;;;5070891;28;20662;-66
2021/01/24 11:47:48;;;;;;;19.83;15.37;;;;;;;;;;5071861;28;20675;-66
2021/01/24 11:50:13;;;;;;;22.48;15.45;;;;;;;;;;5068864;28;20537;-65
2021/01/24 11:52:38;;;;;;;21.67;16.95;;;;;;;;;;5071682;28;20176;-64
2021/01/24 11:55:03;;;;;;;27.43;18.70;;;;;;;;;;5064028;28;20209;-64
2021/01/24 11:57:28;;;;;;;20.50;16.03;;;;;;;;;;5066510;28;20189;-64
2021/01/24 11:59:54;;;;;;;23.60;16.30;;;;;;;;;;5066415;28;20186;-64
2021/01/24 12:02:21;;;;;;;25.75;17.55;;;;;;;;;;5065421;28;20300;-64
2021/01/24 12:04:46;;;;;;;26.10;18.60;;;;;;;;;;5062845;28;20181;-64
2021/01/24 12:07:12;;;;;;;20.37;15.43;;;;;;;;;;5063064;28;20598;-65
2021/01/24 12:09:37;;;;;;;22.50;16.80;;;;;;;;;;5068930;28;20185;-64
2021/01/24 12:12:02;;;;;;;23.43;15.30;;;;;;;;;;5066539;28;20240;-64
2021/01/24 12:14:27;;;;;;;19.67;15.27;;;;;;;;;;5069780;28;20191;-64
2021/01/24 12:16:52;;;;;;;20.97;15.90;;;;;;;;;;5069989;28;20182;-65
2021/01/24 12:19:18;;;;;;;16.52;14.23;;;;;;;;;;5069535;28;21093;-64
2021/01/24 12:21:43;;;;;;;19.20;15.47;;;;;;;;;;5068738;28;20223;-64
2021/01/24 12:24:08;;;;;;;15.38;13.60;;;;;;;;;;5066400;28;20231;-65
2021/01/24 12:26:33;;;;;;;20.80;16.60;;;;;;;;;;5064627;28;20556;-65
2021/01/24 12:28:58;;;;;;;17.03;13.63;;;;;;;;;;5068025;28;20189;-65
2021/01/24 12:31:24;;;;;;;17.30;13.90;;;;;;;;;;5066980;28;20258;-66
2021/01/24 12:33:49;;;;;;;17.70;13.70;;;;;;;;;;5067689;28;20170;-65
2021/01/24 12:36:14;;;;;;;19.63;14.15;;;;;;;;;;5068278;28;20574;-66
2021/01/24 12:38:39;;;;;;;15.00;12.32;;;;;;;;;;5060614;28;20176;-66
2021/01/24 12:41:04;;;;;;;15.27;13.13;;;;;;;;;;5054348;28;20176;-65
2021/01/24 12:43:29;;;;;;;15.38;13.32;;;;;;;;;;5064527;28;20370;-66
2021/01/24 12:45:55;;;;;;;17.73;13.97;;;;;;;;;;5058881;28;20178;-66
2021/01/24 12:48:20;;;;;;;17.15;14.35;;;;;;;;;;5056270;28;20219;-65
2021/01/24 12:50:45;;;;;;;15.20;13.57;;;;;;;;;;5059113;28;20248;-66
2021/01/24 12:53:10;;;;;;;18.10;14.52;;;;;;;;;;5055236;28;20188;-66
2021/01/24 12:55:35;;;;;;;17.25;14.48;;;;;;;;;;5059478;28;20285;-65
2021/01/24 12:58:00;;;;;;;16.48;13.80;;;;;;;;;;5052223;28;20494;-64
2021/01/24 13:00:25;;;;;;;14.40;12.90;;;;;;;;;;5056551;28;20654;-65
2021/01/24 13:02:51;;;;;;;15.75;12.77;;;;;;;;;;5062618;28;20676;-65
2021/01/24 13:05:16;;;;;;;15.03;13.33;;;;;;;;;;5063981;28;20175;-65
2021/01/24 13:07:41;;;;;;;13.33;12.03;;;;;;;;;;5060406;28;20267;-65
2021/01/24 13:10:07;;;;;;;21.60;16.30;;;;;;;;;;5053494;28;20176;-64
2021/01/24 13:12:32;;;;;;;14.27;12.73;;;;;;;;;;5056265;28;20194;-64
2021/01/24 13:14:57;;;;;;;18.13;15.02;;;;;;;;;;5064998;28;20649;-67
2021/01/24 13:17:22;;;;;;;15.43;12.50;;;;;;;;;;5066735;28;20179;-64
2021/01/24 13:19:48;;;;;;;13.95;12.18;;;;;;;;;;5064528;28;20179;-63
2021/01/24 13:22:13;;;;;;;15.20;12.90;;;;;;;;;;5065012;28;20319;-66
2021/01/24 13:24:38;;;;;;;14.93;12.87;;;;;;;;;;5066701;28;20666;-67
2021/01/24 13:27:04;;;;;;;13.60;12.20;;;;;;;;;;5052595;28;20688;-61
2021/01/24 13:29:29;;;;;;;13.73;11.10;;;;;;;;;;5062544;28;20180;-62
2021/01/24 13:31:54;;;;;;;13.13;11.35;;;;;;;;;;5062530;28;20224;-62
2021/01/24 13:34:19;;;;;;;13.68;12.27;;;;;;;;;;5060465;28;20238;-62
2021/01/24 13:36:44;;;;;;;15.17;13.27;;;;;;;;;;5064148;28;20542;-65
2021/01/24 13:39:09;;;;;;;13.47;11.17;;;;;;;;;;5063849;28;20204;-61
2021/01/24 13:41:35;;;;;;;14.57;12.87;;;;;;;;;;5060901;28;20218;-62
2021/01/24 13:44:00;;;;;;;12.50;11.20;;;;;;;;;;5061804;28;20183;-61
2021/01/24 13:46:25;;;;;;;15.77;12.23;;;;;;;;;;5064212;28;20636;-66
2021/01/24 13:48:50;;;;;;;12.77;10.70;;;;;;;;;;5065244;28;20199;-62
2021/01/24 13:51:15;;;;;;;12.13;10.83;;;;;;;;;;5062617;28;20174;-62
2021/01/24 13:53:40;;;;;;;15.80;12.50;;;;;;;;;;5062705;28;20235;-65
2021/01/24 13:56:06;;;;;;;14.70;12.23;;;;;;;;;;5064309;28;20245;-65
2021/01/24 13:58:31;;;;;;;16.00;12.27;;;;;;;;;;5058614;28;20180;-63
2021/01/24 14:00:56;;;;;;;11.80;9.52;;;;;;;;;;5059802;28;20260;-65
2021/01/24 14:03:21;;;;;;;14.13;12.02;;;;;;;;;;5062273;28;20640;-64
2021/01/24 14:05:46;;;;;;;15.00;12.03;;;;;;;;;;5064033;28;20183;-60
2021/01/24 14:08:12;;;;;;;13.70;11.07;;;;;;;;;;5056109;28;20253;-65
2021/01/24 14:10:37;;;;;;;15.57;12.13;;;;;;;;;;5060098;28;20171;-63
2021/01/24 14:13:03;;;;;;;14.67;12.63;;;;;;;;;;5061056;28;20706;-64
2021/01/24 14:15:28;;;;;;;12.93;11.53;;;;;;;;;;5064687;28;20178;-64